createdAt,value
2019-05-11T00:01:04.163Z,13.90
2019-05-11T00:03:34.900Z,14.00
2019-05-11T00:06:05.870Z,14.10
2019-05-11T00:08:36.909Z,14.00
2019-05-11T00:11:07.798Z,13.80
2019-05-11T00:13:38.888Z,13.80
2019-05-11T00:16:10.074Z,13.90
2019-05-11T00:18:41.384Z,14.00
2019-05-11T00:21:12.275Z,14.00
2019-05-11T00:23:43.272Z,14.00
2019-05-11T00:26:14.533Z,14.00
2019-05-11T00:28:45.909Z,13.90
2019-05-11T00:31:16.809Z,14.00
2019-05-11T00:33:47.823Z,14.00
2019-05-11T00:36:19.263Z,13.90
2019-05-11T00:38:50.834Z,13.90
2019-05-11T00:41:22.213Z,13.80
2019-05-11T00:43:53.468Z,13.80
2019-05-11T00:46:24.514Z,13.70
2019-05-11T00:48:55.956Z,13.80
2019-05-11T00:51:27.445Z,13.80
2019-05-11T00:53:58.563Z,13.90
2019-05-11T00:56:29.648Z,13.90
2019-05-11T00:59:00.412Z,13.90
2019-05-11T01:01:31.788Z,14.00
2019-05-11T01:04:03.348Z,14.00
2019-05-11T01:06:34.123Z,14.00
2019-05-11T01:09:05.938Z,13.90
2019-05-11T01:11:37.404Z,14.00
2019-05-11T01:14:08.753Z,14.00
2019-05-11T01:16:39.883Z,14.00
2019-05-11T01:19:10.964Z,13.90
2019-05-11T01:21:42.244Z,13.90
2019-05-11T01:24:13.110Z,13.90
2019-05-11T01:26:44.504Z,13.90
2019-05-11T01:29:15.834Z,13.90
2019-05-11T01:31:46.774Z,13.90
2019-05-11T01:34:17.883Z,13.90
2019-05-11T01:36:48.995Z,13.90
2019-05-11T01:39:20.309Z,13.90
2019-05-11T01:41:51.969Z,13.90
2019-05-11T01:44:23.024Z,13.90
2019-05-11T01:46:54.334Z,13.90
2019-05-11T01:49:25.574Z,13.80
2019-05-11T01:51:56.570Z,13.80
2019-05-11T01:54:27.675Z,13.90
2019-05-11T01:56:58.543Z,14.00
2019-05-11T01:59:29.803Z,14.10
2019-05-11T02:02:01.029Z,14.20
2019-05-11T02:04:33.619Z,14.10
2019-05-11T02:07:04.858Z,14.20
2019-05-11T02:09:35.884Z,14.10
2019-05-11T02:12:06.883Z,14.20
2019-05-11T02:14:38.144Z,14.30
2019-05-11T02:17:08.924Z,14.20
2019-05-11T02:19:39.789Z,14.10
2019-05-11T02:22:10.489Z,14.10
2019-05-11T02:24:41.568Z,14.10
2019-05-11T02:27:12.446Z,14.00
2019-05-11T02:29:43.709Z,14.10
2019-05-11T02:32:14.984Z,14.10
2019-05-11T02:34:45.929Z,14.20
2019-05-11T02:37:16.773Z,14.20
2019-05-11T02:39:48.176Z,14.30
2019-05-11T02:42:19.941Z,14.30
2019-05-11T02:44:50.993Z,14.20
2019-05-11T02:47:21.900Z,14.30
2019-05-11T02:49:53.250Z,14.30
2019-05-11T02:52:24.811Z,14.30
2019-05-11T02:54:57.174Z,14.20
2019-05-11T02:57:28.396Z,14.20
2019-05-11T02:59:59.534Z,14.20
2019-05-11T03:02:30.784Z,14.20
2019-05-11T03:05:01.650Z,14.10
2019-05-11T03:07:33.229Z,14.00
2019-05-11T03:10:04.563Z,14.00
2019-05-11T03:12:36.030Z,14.00
2019-05-11T03:15:07.900Z,14.00
2019-05-11T03:17:39.001Z,14.00
2019-05-11T03:20:10.418Z,14.00
2019-05-11T03:22:41.770Z,13.90
2019-05-11T03:25:13.568Z,14.00
2019-05-11T03:27:44.788Z,14.00
2019-05-11T03:30:15.863Z,13.80
2019-05-11T03:32:46.785Z,13.80
2019-05-11T03:35:18.054Z,13.60
2019-05-11T03:37:49.406Z,13.60
2019-05-11T03:40:20.685Z,13.40
2019-05-11T03:42:51.503Z,13.50
2019-05-11T03:45:22.445Z,13.60
2019-05-11T03:47:53.260Z,13.60
2019-05-11T03:50:24.382Z,13.60
2019-05-11T03:52:55.192Z,13.60
2019-05-11T03:55:25.995Z,13.60
2019-05-11T03:57:57.459Z,13.60
2019-05-11T04:00:28.425Z,13.60
2019-05-11T04:02:59.275Z,13.60
2019-05-11T04:05:30.565Z,13.60
2019-05-11T04:08:01.702Z,13.60
2019-05-11T04:10:33.425Z,13.70
2019-05-11T04:13:04.624Z,13.60
2019-05-11T04:15:35.557Z,13.40
2019-05-11T04:18:06.785Z,13.20
2019-05-11T04:20:37.625Z,13.20
2019-05-11T04:23:08.665Z,13.20
2019-05-11T04:25:39.669Z,13.30
2019-05-11T04:28:10.464Z,13.40
2019-05-11T04:30:41.595Z,13.50
2019-05-11T04:33:12.495Z,13.40
2019-05-11T04:35:43.867Z,13.40
2019-05-11T04:38:15.200Z,13.30
2019-05-11T04:40:47.075Z,13.50
2019-05-11T04:43:18.213Z,13.60
2019-05-11T04:45:49.062Z,13.70
2019-05-11T04:48:21.315Z,13.80
2019-05-11T04:50:52.248Z,13.90
2019-05-11T04:53:23.209Z,13.80
2019-05-11T04:55:54.689Z,14.00
2019-05-11T04:58:25.500Z,14.10
2019-05-11T05:00:56.529Z,14.20
2019-05-11T05:03:40.338Z,14.20
2019-05-11T05:06:20.874Z,14.00
2019-05-11T05:08:33.173Z,14.00
2019-05-11T05:11:04.584Z,14.00
2019-05-11T05:13:36.563Z,13.70
2019-05-11T05:16:08.280Z,13.70
2019-05-11T05:18:39.869Z,13.60
2019-05-11T05:21:11.069Z,13.40
2019-05-11T05:23:41.970Z,13.30
2019-05-11T05:26:13.381Z,13.40
2019-05-11T05:28:45.866Z,13.40
2019-05-11T05:34:01.314Z,13.70
2019-05-11T05:36:31.626Z,13.90
2019-05-11T05:39:02.875Z,14.10
2019-05-11T05:41:34.899Z,14.30
2019-05-11T05:44:06.789Z,14.50
2019-05-11T05:46:38.273Z,14.70
2019-05-11T05:49:09.223Z,14.80
2019-05-11T05:51:41.872Z,15.00
2019-05-11T05:54:13.319Z,15.00
2019-05-11T05:56:44.963Z,15.10
2019-05-11T05:59:16.289Z,15.10
2019-05-11T06:01:47.839Z,15.00
2019-05-11T06:04:19.594Z,15.10
2019-05-11T06:06:50.879Z,15.20
2019-05-11T06:09:22.189Z,15.20
2019-05-11T06:11:53.678Z,15.40
2019-05-11T06:14:24.664Z,15.50
2019-05-11T06:17:08.874Z,15.60
2019-05-11T06:19:48.115Z,15.60
2019-05-11T06:22:27.844Z,15.50
2019-05-11T06:25:03.999Z,15.50
2019-05-11T06:27:41.078Z,15.60
2019-05-11T06:30:17.754Z,16.00
2019-05-11T06:49:31.729Z,16.30
2019-05-11T06:52:04.740Z,16.20
2019-05-11T06:54:36.399Z,16.20
2019-05-11T06:57:08.410Z,16.00
2019-05-11T06:59:39.384Z,15.80
2019-05-11T07:02:10.274Z,15.70
2019-05-11T07:04:44.585Z,15.60
2019-05-11T07:07:16.116Z,15.50
2019-05-11T07:09:47.304Z,15.50
2019-05-11T07:12:19.983Z,15.60
2019-05-11T07:14:52.374Z,15.60
2019-05-11T07:17:23.628Z,15.70
2019-05-11T07:19:57.080Z,15.80
2019-05-11T07:22:33.079Z,15.90
2019-05-11T07:25:08.354Z,16.00
2019-05-11T07:27:39.924Z,16.20
2019-05-11T07:30:10.869Z,16.40
2019-05-11T07:32:41.734Z,16.40
2019-05-11T07:35:12.489Z,16.20
2019-05-11T07:37:43.444Z,16.30
2019-05-11T07:40:14.498Z,16.30
2019-05-11T07:42:45.449Z,16.30
2019-05-11T07:45:18.002Z,16.40
2019-05-11T07:47:48.792Z,16.30
2019-05-11T07:50:19.649Z,16.50
2019-05-11T07:52:50.879Z,16.40
2019-05-11T07:55:21.713Z,16.40
2019-05-11T07:57:52.659Z,16.50
2019-05-11T08:00:23.754Z,16.50
2019-05-11T08:02:54.549Z,16.60
2019-05-11T08:05:25.419Z,16.80
2019-05-11T08:07:56.100Z,17.00
2019-05-11T08:10:28.110Z,17.10
2019-05-11T08:12:59.103Z,17.10
2019-05-11T08:15:29.835Z,17.40
2019-05-11T08:18:00.670Z,17.60
2019-05-11T08:20:31.599Z,17.60
2019-05-11T08:23:02.424Z,17.80
2019-05-11T08:25:33.611Z,17.20
2019-05-11T08:28:04.829Z,17.50
2019-05-11T08:30:37.991Z,17.40
2019-05-11T08:33:08.647Z,17.70
2019-05-11T08:35:40.194Z,17.80
2019-05-11T08:38:11.013Z,18.10
2019-05-11T08:40:41.824Z,17.90
2019-05-11T08:43:12.887Z,18.10
2019-05-11T08:45:43.684Z,18.00
2019-05-11T08:48:14.753Z,18.00
2019-05-11T08:50:45.659Z,18.30
2019-05-11T08:53:17.851Z,18.80
2019-05-11T08:55:48.885Z,18.40
2019-05-11T08:58:19.896Z,18.70
2019-05-11T09:00:51.394Z,18.80
2019-05-11T09:03:22.323Z,18.40
2019-05-11T09:05:53.083Z,18.80
2019-05-11T09:08:23.899Z,18.60
2019-05-11T09:10:54.854Z,18.80
2019-05-11T09:13:27.695Z,18.70
2019-05-11T09:15:58.847Z,18.90
2019-05-11T09:18:30.099Z,19.00
2019-05-11T09:21:01.060Z,18.70
2019-05-11T09:23:37.356Z,18.80
2019-05-11T09:26:04.695Z,19.00
2019-05-11T09:28:35.618Z,19.70
2019-05-11T09:31:08.567Z,20.40
2019-05-11T09:33:39.649Z,20.40
2019-05-11T09:36:10.726Z,20.30
2019-05-11T09:38:41.399Z,20.00
2019-05-11T09:41:12.310Z,20.00
2019-05-11T09:43:43.298Z,19.90
2019-05-11T09:46:14.064Z,19.80
2019-05-11T09:48:45.104Z,19.40
2019-05-11T09:51:18.201Z,19.40
2019-05-11T09:53:48.585Z,19.50
2019-05-11T09:56:19.506Z,19.70
2019-05-11T09:58:50.371Z,20.00
2019-05-11T10:01:21.220Z,20.30
2019-05-11T10:03:52.118Z,20.50
2019-05-11T10:06:22.860Z,20.50
2019-05-11T10:08:53.594Z,19.60
2019-05-11T10:11:24.488Z,19.50
2019-05-11T10:13:57.618Z,20.20
2019-05-11T10:16:28.192Z,20.60
2019-05-11T10:18:59.273Z,20.10
2019-05-11T10:21:30.114Z,20.20
2019-05-11T10:24:01.304Z,20.20
2019-05-11T10:26:32.354Z,20.20
2019-05-11T10:29:03.031Z,20.70
2019-05-11T10:31:38.378Z,20.90
2019-05-11T10:34:08.789Z,21.00
2019-05-11T10:36:39.650Z,21.10
2019-05-11T10:39:10.979Z,20.70
2019-05-11T10:41:41.798Z,21.30
2019-05-11T10:44:12.634Z,21.10
2019-05-11T10:46:43.363Z,20.70
2019-05-11T10:49:14.129Z,21.20
2019-05-11T10:51:45.094Z,21.00
2019-05-11T10:54:18.478Z,20.50
2019-05-11T10:56:48.473Z,20.90
2019-05-11T10:59:19.636Z,20.90
2019-05-11T11:01:50.864Z,21.00
2019-05-11T11:04:21.794Z,20.90
2019-05-11T11:06:52.589Z,21.00
2019-05-11T11:09:23.600Z,21.50
2019-05-11T11:11:54.479Z,21.80
2019-05-11T11:14:25.484Z,21.60
2019-05-11T11:16:58.276Z,21.20
2019-05-11T11:19:29.080Z,21.30
2019-05-11T11:22:28.540Z,21.10
2019-05-11T11:24:33.088Z,20.60
2019-05-11T11:27:03.888Z,20.20
2019-05-11T11:29:34.589Z,20.20
2019-05-11T11:32:05.409Z,20.20
2019-05-11T11:34:38.364Z,20.20
2019-05-11T11:37:09.405Z,20.40
2019-05-11T11:39:40.209Z,20.30
2019-05-11T11:42:11.124Z,19.80
2019-05-11T11:44:41.949Z,19.90
2019-05-11T11:47:12.661Z,19.80
2019-05-11T11:49:43.419Z,19.10
2019-05-11T11:52:14.405Z,18.90
2019-05-11T11:54:45.119Z,18.90
2019-05-11T11:57:18.063Z,18.90
2019-05-11T11:59:48.419Z,19.20
2019-05-11T12:02:19.319Z,19.20
2019-05-11T12:04:50.111Z,19.30
2019-05-11T12:07:20.999Z,19.30
2019-05-11T12:09:51.723Z,19.40
2019-05-11T12:12:22.559Z,19.40
2019-05-11T12:14:53.359Z,19.50
2019-05-11T12:17:24.154Z,19.30
2019-05-11T12:19:54.845Z,18.90
2019-05-11T12:22:27.885Z,18.90
2019-05-11T12:24:58.906Z,19.00
2019-05-11T12:27:29.990Z,19.10
2019-05-11T12:30:00.814Z,19.30
2019-05-11T12:32:40.809Z,19.50
2019-05-11T12:35:11.808Z,19.40
2019-05-11T12:37:42.538Z,19.40
2019-05-11T12:40:13.904Z,19.50
2019-05-11T12:42:44.618Z,19.40
2019-05-11T12:45:18.195Z,19.60
2019-05-11T12:47:49.349Z,19.40
2019-05-11T12:50:21.894Z,19.40
2019-05-11T12:52:52.638Z,19.70
2019-05-11T12:55:23.627Z,19.80
2019-05-11T12:57:57.946Z,19.70
2019-05-11T13:00:31.341Z,19.90
2019-05-11T13:03:01.541Z,19.60
2019-05-11T13:05:32.458Z,19.70
2019-05-11T13:08:03.239Z,19.70
2019-05-11T13:10:34.581Z,19.90
2019-05-11T13:13:05.435Z,20.10
2019-05-11T13:15:38.508Z,20.30
2019-05-11T13:18:08.909Z,20.50
2019-05-11T13:20:39.749Z,20.60
2019-05-11T13:23:10.724Z,20.00
2019-05-11T13:25:41.540Z,20.30
2019-05-11T13:28:12.459Z,20.40
2019-05-11T13:30:43.483Z,20.40
2019-05-11T13:33:14.364Z,20.30
2019-05-11T13:35:45.240Z,20.20
2019-05-11T13:38:17.806Z,20.20
2019-05-11T13:40:48.877Z,20.20
2019-05-11T13:43:19.879Z,20.20
2019-05-11T13:45:50.754Z,20.30
2019-05-11T13:48:21.578Z,20.30
2019-05-11T13:50:52.454Z,20.30
2019-05-11T13:53:23.161Z,20.40
2019-05-11T13:55:54.029Z,20.50
2019-05-11T13:58:24.864Z,20.50
2019-05-11T14:00:55.664Z,20.80
2019-05-11T14:03:27.696Z,21.50
2019-05-11T14:05:58.758Z,22.50
2019-05-11T14:08:29.566Z,22.00
2019-05-11T14:11:00.457Z,21.80
2019-05-11T14:13:31.368Z,21.70
2019-05-11T14:16:02.159Z,23.70
2019-05-11T14:18:33.159Z,26.80
2019-05-11T14:21:04.160Z,28.50
2019-05-11T14:23:35.344Z,28.10
2019-05-11T14:26:08.351Z,29.90
2019-05-11T14:28:39.204Z,29.00
2019-05-11T14:31:10.194Z,28.00
2019-05-11T14:33:41.049Z,28.90
2019-05-11T14:36:11.969Z,29.80
2019-05-11T14:38:43.020Z,30.10
2019-05-11T14:41:13.920Z,29.30
2019-05-11T14:43:44.809Z,29.00
2019-05-11T14:46:17.864Z,30.50
2019-05-11T14:48:49.259Z,31.20
2019-05-11T14:51:20.889Z,30.90
2019-05-11T14:53:56.230Z,30.60
2019-05-11T14:56:27.787Z,28.90
2019-05-11T14:59:00.344Z,27.70
2019-05-11T15:01:31.684Z,26.90
2019-05-11T15:04:02.489Z,25.60
2019-05-11T15:06:33.255Z,25.00
2019-05-11T15:09:04.945Z,24.60
2019-05-11T15:11:36.185Z,24.30
2019-05-11T15:14:08.263Z,23.60
2019-05-11T15:16:40.214Z,23.00
2019-05-11T15:19:12.381Z,22.70
2019-05-11T15:21:43.490Z,22.30
2019-05-11T15:24:14.484Z,22.20
2019-05-11T15:26:45.484Z,22.10
2019-05-11T15:29:18.098Z,21.50
2019-05-11T15:31:48.867Z,20.80
2019-05-11T15:34:20.076Z,20.40
2019-05-11T15:36:51.984Z,19.90
2019-05-11T15:39:23.519Z,19.50
2019-05-11T15:42:07.267Z,19.30
2019-05-11T15:44:28.624Z,18.10
2019-05-11T15:46:59.759Z,15.20
2019-05-11T15:49:31.077Z,13.80
2019-05-11T15:52:02.115Z,13.00
2019-05-11T15:54:33.474Z,12.40
2019-05-11T15:57:04.989Z,12.40
2019-05-11T15:59:38.857Z,12.40
2019-05-11T16:02:09.564Z,12.20
2019-05-11T16:04:41.321Z,12.10
2019-05-11T16:07:12.809Z,12.00
2019-05-11T16:09:43.794Z,12.20
2019-05-11T16:12:15.469Z,12.30
2019-05-11T16:14:49.464Z,12.30
2019-05-11T16:17:20.600Z,12.50
2019-05-11T16:19:51.790Z,12.70
2019-05-11T16:22:23.939Z,12.60
2019-05-11T16:24:57.955Z,12.90
2019-05-11T16:27:29.150Z,12.70
2019-05-11T16:30:01.119Z,13.70
2019-05-11T16:32:32.545Z,13.90
2019-05-11T16:35:05.364Z,13.70
2019-05-11T16:37:38.008Z,14.00
2019-05-11T16:40:10.940Z,15.20
2019-05-11T16:42:43.059Z,14.60
2019-05-11T16:45:14.584Z,14.40
2019-05-11T16:47:47.662Z,14.10
2019-05-11T16:50:18.679Z,14.20
2019-05-11T16:52:50.920Z,14.20
2019-05-11T16:55:22.390Z,14.20
2019-05-11T16:57:53.824Z,14.30
2019-05-11T17:00:25.384Z,14.80
2019-05-11T17:02:57.816Z,14.80
2019-05-11T17:05:33.277Z,14.80
2019-05-11T17:08:01.925Z,14.70
2019-05-11T17:10:33.429Z,14.60
2019-05-11T17:13:04.379Z,14.50
2019-05-11T17:15:35.389Z,14.50
2019-05-11T17:18:08.064Z,14.50
2019-05-11T17:20:38.614Z,14.40
2019-05-11T17:23:09.649Z,14.40
2019-05-11T17:25:40.474Z,14.30
2019-05-11T17:28:11.504Z,14.30
2019-05-11T17:30:42.454Z,14.20
2019-05-11T17:33:13.314Z,13.80
2019-05-11T17:35:44.184Z,13.50
2019-05-11T17:38:18.286Z,13.60
2019-05-11T17:40:48.640Z,13.50
2019-05-11T17:43:19.644Z,13.50
2019-05-11T17:45:50.336Z,13.50
2019-05-11T17:48:21.119Z,13.60
2019-05-11T17:50:52.189Z,13.50
2019-05-11T17:53:23.329Z,13.50
2019-05-11T17:55:54.084Z,13.60
2019-05-11T17:58:24.999Z,13.60
2019-05-11T18:00:58.582Z,13.50
2019-05-11T18:03:28.624Z,13.50
2019-05-11T18:05:59.874Z,13.50
2019-05-11T18:08:31.030Z,13.40
2019-05-11T18:11:02.133Z,13.40
2019-05-11T18:13:33.099Z,13.40
2019-05-11T18:16:03.915Z,13.40
2019-05-11T18:18:34.745Z,13.60
2019-05-11T18:21:08.323Z,13.80
2019-05-11T18:23:38.836Z,13.80
2019-05-11T18:26:09.910Z,13.80
2019-05-11T18:28:40.934Z,13.90
2019-05-11T18:31:12.551Z,14.00
2019-05-11T18:33:43.434Z,13.90
2019-05-11T18:36:14.309Z,13.70
2019-05-11T18:38:45.255Z,13.50
2019-05-11T18:41:16.285Z,13.40
2019-05-11T18:43:48.363Z,13.30
2019-05-11T18:46:19.809Z,13.30
2019-05-11T18:48:50.770Z,13.30
2019-05-11T18:51:21.664Z,13.20
2019-05-11T18:53:52.754Z,13.10
2019-05-11T18:56:23.543Z,13.10
2019-05-11T18:58:54.409Z,13.10
2019-05-11T19:01:25.459Z,13.10
2019-05-11T19:03:56.369Z,13.10
2019-05-11T19:06:28.579Z,13.10
2019-05-11T19:08:59.569Z,13.10
2019-05-11T19:11:30.474Z,13.10
2019-05-11T19:14:01.526Z,13.00
2019-05-11T19:16:32.484Z,12.90
2019-05-11T19:19:03.259Z,12.80
2019-05-11T19:21:34.076Z,12.70
2019-05-11T19:24:06.277Z,12.70
2019-05-11T19:26:37.721Z,12.80
2019-05-11T19:29:09.120Z,12.80
2019-05-11T19:31:40.280Z,12.70
2019-05-11T19:34:11.422Z,12.70
2019-05-11T19:36:42.439Z,12.70
2019-05-11T19:39:13.419Z,12.80
2019-05-11T19:41:44.654Z,12.70
2019-05-11T19:44:15.759Z,12.70
2019-05-11T19:46:47.716Z,12.60
2019-05-11T19:49:19.081Z,12.60
2019-05-11T19:51:49.984Z,12.60
2019-05-11T19:54:20.801Z,12.50
2019-05-11T19:56:52.369Z,12.50
2019-05-11T19:59:23.424Z,12.40
2019-05-11T20:01:57.260Z,12.30
2019-05-11T20:04:28.353Z,12.30
2019-05-11T20:06:59.424Z,12.20
2019-05-11T20:09:30.464Z,12.20
2019-05-11T20:12:01.539Z,12.30
2019-05-11T20:14:32.664Z,12.30
2019-05-11T20:17:03.669Z,12.30
2019-05-11T20:19:34.951Z,12.20
2019-05-11T20:22:06.009Z,12.20
2019-05-11T20:24:37.639Z,12.10
2019-05-11T20:27:08.579Z,12.20
2019-05-11T20:29:39.582Z,12.20
2019-05-11T20:32:10.639Z,12.20
2019-05-11T20:34:41.469Z,12.20
2019-05-11T20:37:12.299Z,12.20
2019-05-11T20:39:44.544Z,12.10
2019-05-11T20:42:17.961Z,12.00
2019-05-11T20:44:48.111Z,12.00
2019-05-11T20:47:19.059Z,12.00
2019-05-11T20:49:49.834Z,12.00
2019-05-11T20:52:20.743Z,12.10
2019-05-11T20:54:51.704Z,12.20
2019-05-11T20:57:22.565Z,12.20
2019-05-11T20:59:53.635Z,12.20
2019-05-11T21:02:24.509Z,12.20
2019-05-11T21:04:55.419Z,12.20
2019-05-11T21:07:27.998Z,12.20
2019-05-11T21:10:00.239Z,12.20
2019-05-11T21:12:31.531Z,12.30
2019-05-11T21:15:02.400Z,12.20
2019-05-11T21:17:33.729Z,12.20
2019-05-11T21:20:05.899Z,12.10
2019-05-11T21:22:40.068Z,12.00
2019-05-11T21:25:10.595Z,11.80
2019-05-11T21:27:41.759Z,11.80
2019-05-11T21:30:12.974Z,11.80
2019-05-11T21:32:44.639Z,11.80
2019-05-11T21:35:15.509Z,11.70
2019-05-11T21:37:48.582Z,11.70
2019-05-11T21:40:18.944Z,11.80
2019-05-11T21:42:49.689Z,11.80
2019-05-11T21:45:21.184Z,11.80
2019-05-11T21:47:52.104Z,11.80
2019-05-11T21:50:23.552Z,11.80
2019-05-11T21:52:54.544Z,11.90
2019-05-11T21:55:28.949Z,11.90
2019-05-11T21:57:58.249Z,11.90
2019-05-11T22:00:30.890Z,11.90
2019-05-11T22:03:01.860Z,11.80
2019-05-11T22:05:32.643Z,11.80
2019-05-11T22:08:03.684Z,11.80
2019-05-11T22:10:34.623Z,11.70
2019-05-11T22:13:05.874Z,11.80
2019-05-11T22:15:38.547Z,11.80
2019-05-11T22:18:09.780Z,11.80
2019-05-11T22:20:41.420Z,11.80
2019-05-11T22:23:12.670Z,11.90
2019-05-11T22:25:43.350Z,11.80
2019-05-11T22:28:14.374Z,11.80
2019-05-11T22:30:45.429Z,11.80
2019-05-11T22:33:17.753Z,11.90
2019-05-11T22:35:49.060Z,12.00
2019-05-11T22:38:19.823Z,12.00
2019-05-11T22:40:51.239Z,12.10
2019-05-11T22:43:22.634Z,12.00
2019-05-11T22:45:53.419Z,12.10
2019-05-11T22:48:24.179Z,12.10
2019-05-11T22:50:55.534Z,12.10
2019-05-11T22:53:43.364Z,12.10
2019-05-11T22:55:59.070Z,12.10
2019-05-11T22:58:30.384Z,12.10
2019-05-11T23:01:01.996Z,12.10
2019-05-11T23:03:33.059Z,12.00
2019-05-11T23:06:03.881Z,12.00
2019-05-11T23:08:34.889Z,12.00
2019-05-11T23:11:05.939Z,12.00
2019-05-11T23:13:38.261Z,12.10
2019-05-11T23:16:09.079Z,12.10
2019-05-11T23:18:40.345Z,12.00
2019-05-11T23:21:11.113Z,12.00
2019-05-11T23:23:41.925Z,12.00
2019-05-11T23:26:12.769Z,12.00
2019-05-11T23:28:44.009Z,12.00
2019-05-11T23:31:15.231Z,12.00
2019-05-11T23:33:46.245Z,12.10
2019-05-11T23:36:18.309Z,12.00
2019-05-11T23:38:49.294Z,12.10
2019-05-11T23:41:24.722Z,12.10
2019-05-11T23:43:52.989Z,12.10
2019-05-11T23:46:23.879Z,12.10
2019-05-11T23:48:54.715Z,12.10
2019-05-11T23:51:28.044Z,12.20
2019-05-11T23:53:58.756Z,12.20
2019-05-11T23:56:30.135Z,12.20
2019-05-11T23:59:01.274Z,12.20
